createdAt,value
2018-02-10T00:00:27.861Z,28.70
2018-02-10T00:02:55.459Z,28.53
2018-02-10T00:05:23.046Z,27.50
2018-02-10T00:07:51.431Z,26.47
2018-02-10T00:10:19.009Z,28.07
2018-02-10T00:12:47.353Z,28.83
2018-02-10T00:15:14.920Z,29.83
2018-02-10T00:17:42.500Z,29.20
2018-02-10T00:20:10.067Z,26.33
2018-02-10T00:22:37.758Z,25.90
2018-02-10T00:25:05.343Z,26.40
2018-02-10T00:27:32.948Z,29.10
2018-02-10T00:30:00.636Z,29.37
2018-02-10T00:32:28.255Z,28.43
2018-02-10T00:34:55.826Z,29.07
2018-02-10T00:37:23.419Z,29.47
2018-02-10T00:39:51.010Z,30.13
2018-02-10T00:42:19.354Z,32.83
2018-02-10T00:44:46.985Z,32.47
2018-02-10T00:47:14.661Z,32.60
2018-02-10T00:49:42.235Z,31.20
2018-02-10T00:52:09.824Z,32.30
2018-02-10T00:54:37.510Z,31.23
2018-02-10T00:57:05.091Z,35.93
2018-02-10T00:59:32.686Z,30.17
2018-02-10T01:02:00.349Z,32.27
2018-02-10T01:04:27.972Z,30.90
2018-02-10T01:06:55.576Z,33.93
2018-02-10T01:09:23.258Z,32.17
2018-02-10T01:11:50.886Z,29.73
2018-02-10T01:14:18.450Z,29.53
2018-02-10T01:16:46.037Z,31.77
2018-02-10T01:19:13.626Z,32.33
2018-02-10T01:21:41.210Z,31.10
2018-02-10T01:24:08.871Z,32.17
2018-02-10T01:26:36.452Z,33.57
2018-02-10T01:29:04.074Z,31.27
2018-02-10T01:31:32.445Z,34.07
2018-02-10T01:34:00.054Z,32.23
2018-02-10T01:36:27.642Z,32.73
2018-02-10T01:38:55.271Z,31.10
2018-02-10T01:41:22.880Z,32.37
2018-02-10T01:43:50.497Z,29.70
2018-02-10T01:46:18.083Z,30.20
2018-02-10T01:48:45.678Z,30.87
2018-02-10T01:51:13.995Z,31.63
2018-02-10T01:53:41.574Z,31.67
2018-02-10T01:56:09.193Z,33.73
2018-02-10T01:58:36.814Z,31.33
2018-02-10T02:01:04.391Z,31.83
2018-02-10T02:03:31.992Z,34.23
2018-02-10T02:05:59.576Z,31.40
2018-02-10T02:08:27.193Z,30.47
2018-02-10T02:10:54.772Z,30.67
2018-02-10T02:13:22.397Z,32.93
2018-02-10T02:15:50.031Z,32.03
2018-02-10T02:18:17.702Z,31.90
2018-02-10T02:20:45.269Z,31.70
2018-02-10T02:23:12.864Z,29.93
2018-02-10T02:25:40.532Z,29.23
2018-02-10T02:28:08.163Z,30.07
2018-02-10T02:30:36.496Z,30.67
2018-02-10T02:33:04.166Z,30.33
2018-02-10T02:35:31.772Z,31.27
2018-02-10T02:37:59.381Z,29.50
2018-02-10T02:40:26.939Z,31.03
2018-02-10T02:42:55.296Z,29.17
2018-02-10T02:45:22.866Z,29.27
2018-02-10T02:47:50.456Z,29.40
2018-02-10T02:50:18.028Z,31.67
2018-02-10T02:52:45.625Z,29.73
2018-02-10T02:55:13.229Z,30.17
2018-02-10T02:57:40.844Z,29.67
2018-02-10T03:00:08.441Z,28.27
2018-02-10T03:02:36.772Z,32.10
2018-02-10T03:05:04.414Z,29.90
2018-02-10T03:07:31.972Z,29.73
2018-02-10T03:10:00.334Z,28.83
2018-02-10T03:12:27.917Z,29.60
2018-02-10T03:14:55.515Z,30.17
2018-02-10T03:17:23.105Z,28.93
2018-02-10T03:19:50.709Z,31.80
2018-02-10T03:22:18.302Z,28.53
2018-02-10T03:24:45.895Z,28.57
2018-02-10T03:27:13.500Z,28.60
2018-02-10T03:29:41.067Z,29.27
2018-02-10T03:32:08.642Z,29.90
2018-02-10T03:34:36.219Z,28.87
2018-02-10T03:37:03.816Z,27.13
2018-02-10T03:39:31.398Z,25.93
2018-02-10T03:41:58.998Z,25.77
2018-02-10T03:44:27.359Z,27.70
2018-02-10T03:46:54.970Z,27.10
2018-02-10T03:49:23.294Z,27.20
2018-02-10T03:51:50.949Z,29.50
2018-02-10T03:54:18.510Z,26.77
2018-02-10T03:56:46.110Z,27.37
2018-02-10T03:59:13.672Z,27.23
2018-02-10T04:01:41.263Z,28.27
2018-02-10T04:04:08.831Z,27.90
2018-02-10T04:06:36.395Z,28.57
2018-02-10T04:09:03.977Z,27.37
2018-02-10T04:11:31.548Z,27.53
2018-02-10T04:13:59.110Z,29.23
2018-02-10T04:16:26.676Z,29.50
2018-02-10T04:18:54.266Z,27.40
2018-02-10T04:21:21.888Z,28.40
2018-02-10T04:23:50.229Z,28.80
2018-02-10T04:26:17.795Z,28.67
2018-02-10T04:28:45.363Z,28.77
2018-02-10T04:31:12.941Z,27.63
2018-02-10T04:33:40.512Z,27.53
2018-02-10T04:36:08.087Z,27.43
2018-02-10T04:38:35.654Z,28.40
2018-02-10T04:41:03.230Z,28.60
2018-02-10T04:43:30.826Z,29.03
2018-02-10T04:45:58.385Z,28.03
2018-02-10T04:48:25.963Z,28.03
2018-02-10T04:50:53.539Z,28.50
2018-02-10T04:53:21.121Z,28.87
2018-02-10T04:55:48.690Z,27.57
2018-02-10T04:58:16.286Z,28.77
2018-02-10T05:00:44.608Z,29.50
2018-02-10T05:03:12.179Z,26.20
2018-02-10T05:05:39.766Z,30.53
2018-02-10T05:08:07.538Z,29.57
2018-02-10T05:10:36.876Z,28.57
2018-02-10T05:13:04.491Z,29.47
2018-02-10T05:15:32.877Z,29.10
2018-02-10T05:18:01.235Z,28.97
2018-02-10T05:20:29.642Z,26.13
2018-02-10T05:22:57.210Z,26.63
2018-02-10T05:25:25.580Z,27.50
2018-02-10T05:27:53.167Z,28.87
2018-02-10T05:30:20.771Z,25.83
2018-02-10T05:32:49.441Z,27.40
2018-02-10T05:35:17.043Z,29.13
2018-02-10T05:37:45.415Z,26.70
2018-02-10T05:40:13.049Z,28.43
2018-02-10T05:42:40.708Z,28.70
2018-02-10T05:45:08.304Z,28.10
2018-02-10T05:47:35.885Z,28.67
2018-02-10T05:50:03.537Z,27.97
2018-02-10T05:52:31.121Z,26.37
2018-02-10T05:54:58.682Z,27.63
2018-02-10T05:57:26.299Z,28.03
2018-02-10T05:59:53.854Z,26.53
2018-02-10T06:02:21.434Z,27.57
2018-02-10T06:04:49.063Z,26.77
2018-02-10T06:07:16.673Z,27.50
2018-02-10T06:09:45.046Z,29.37
2018-02-10T06:12:12.618Z,27.53
2018-02-10T06:14:40.210Z,28.97
2018-02-10T06:17:07.779Z,28.83
2018-02-10T06:19:36.346Z,28.27
2018-02-10T06:22:04.034Z,27.60
2018-02-10T06:24:31.660Z,27.70
2018-02-10T06:27:00.007Z,29.87
2018-02-10T06:29:27.708Z,29.37
2018-02-10T06:31:56.048Z,29.40
2018-02-10T06:34:23.656Z,29.03
2018-02-10T06:36:51.250Z,28.57
2018-02-10T06:39:19.647Z,30.07
2018-02-10T06:41:48.003Z,31.07
2018-02-10T06:44:15.587Z,29.30
2018-02-10T06:46:43.937Z,29.00
2018-02-10T06:49:12.195Z,29.03
2018-02-10T06:51:40.553Z,28.90
2018-02-10T06:54:08.125Z,28.27
2018-02-10T06:56:35.704Z,28.87
2018-02-10T06:59:03.275Z,29.50
2018-02-10T07:01:30.844Z,28.97
2018-02-10T07:03:58.424Z,28.23
2018-02-10T07:06:26.782Z,28.73
2018-02-10T07:08:54.397Z,28.97
2018-02-10T07:11:22.746Z,30.90
2018-02-10T07:13:50.399Z,29.87
2018-02-10T07:16:17.986Z,28.93
2018-02-10T07:18:46.584Z,28.27
2018-02-10T07:21:14.237Z,28.83
2018-02-10T07:23:41.877Z,29.23
2018-02-10T07:26:10.236Z,28.03
2018-02-10T07:28:38.983Z,29.63
2018-02-10T07:31:06.578Z,30.83
2018-02-10T07:33:34.239Z,30.97
2018-02-10T07:36:01.856Z,29.33
2018-02-10T07:38:29.541Z,30.60
2018-02-10T07:40:58.304Z,28.77
2018-02-10T07:43:25.878Z,27.57
2018-02-10T07:45:53.476Z,30.27
2018-02-10T07:48:21.131Z,28.60
2018-02-10T07:50:48.707Z,31.27
2018-02-10T07:53:16.300Z,30.77
2018-02-10T07:55:44.661Z,30.23
2018-02-10T07:58:12.223Z,27.97
2018-02-10T08:00:39.812Z,28.63
2018-02-10T08:03:07.402Z,30.67
2018-02-10T08:05:34.997Z,28.87
2018-02-10T08:08:02.621Z,30.23
2018-02-10T08:10:30.278Z,33.07
2018-02-10T08:12:57.956Z,31.83
2018-02-10T08:15:25.592Z,31.70
2018-02-10T08:17:55.105Z,29.53
2018-02-10T08:20:24.624Z,30.30
2018-02-10T08:22:52.323Z,30.63
2018-02-10T08:25:19.925Z,28.40
2018-02-10T08:27:47.593Z,32.00
2018-02-10T08:30:15.273Z,31.07
2018-02-10T08:32:42.877Z,30.80
2018-02-10T08:35:10.475Z,31.73
2018-02-10T08:37:38.177Z,32.10
2018-02-10T08:40:05.813Z,31.03
2018-02-10T08:42:33.407Z,28.73
2018-02-10T08:45:01.535Z,29.43
2018-02-10T08:47:29.157Z,32.63
2018-02-10T08:49:57.585Z,32.93
2018-02-10T08:52:25.247Z,35.57
2018-02-10T08:54:52.882Z,33.60
2018-02-10T08:57:20.532Z,32.73
2018-02-10T08:59:48.124Z,31.00
2018-02-10T09:02:16.481Z,35.77
2018-02-10T09:04:44.079Z,38.23
2018-02-10T09:07:11.665Z,33.90
2018-02-10T09:09:39.543Z,33.83
2018-02-10T09:12:07.774Z,31.20
2018-02-10T09:14:35.384Z,32.10
2018-02-10T09:17:03.036Z,31.63
2018-02-10T09:19:30.799Z,32.20
2018-02-10T09:21:58.418Z,31.73
2018-02-10T09:24:26.852Z,29.63
2018-02-10T09:26:55.141Z,30.93
2018-02-10T09:29:23.840Z,31.60
2018-02-10T09:31:51.507Z,31.67
2018-02-10T09:34:19.189Z,30.83
2018-02-10T09:36:47.548Z,29.67
2018-02-10T09:39:16.996Z,30.63
2018-02-10T09:41:44.932Z,29.10
2018-02-10T09:44:14.975Z,30.53
2018-02-10T09:46:43.359Z,29.40
2018-02-10T09:49:10.931Z,28.87
2018-02-10T09:51:38.756Z,28.03
2018-02-10T09:54:06.366Z,27.73
2018-02-10T09:56:34.024Z,28.73
2018-02-10T09:59:01.660Z,27.43
2018-02-10T10:01:29.400Z,26.97
2018-02-10T10:03:57.054Z,27.30
2018-02-10T10:06:25.477Z,26.67
2018-02-10T10:08:53.867Z,26.03
2018-02-10T10:11:21.569Z,24.90
2018-02-10T10:13:49.930Z,25.37
2018-02-10T10:16:17.893Z,26.17
2018-02-10T10:18:45.480Z,24.53
2018-02-10T10:21:13.197Z,26.03
2018-02-10T10:23:40.797Z,24.87
2018-02-10T10:26:08.482Z,26.23
2018-02-10T10:28:36.092Z,26.67
2018-02-10T10:31:03.805Z,25.50
2018-02-10T10:33:31.520Z,26.20
2018-02-10T10:35:59.135Z,23.77
2018-02-10T10:38:27.604Z,24.13
2018-02-10T10:40:55.255Z,26.93
2018-02-10T10:43:22.832Z,25.73
2018-02-10T10:45:51.303Z,23.47
2018-02-10T10:48:19.026Z,26.60
2018-02-10T10:50:48.396Z,24.37
2018-02-10T10:53:16.055Z,24.50
2018-02-10T10:55:43.736Z,23.50
2018-02-10T10:58:12.265Z,24.90
2018-02-10T11:00:40.690Z,23.83
2018-02-10T11:03:08.315Z,25.23
2018-02-10T11:05:36.752Z,24.30
2018-02-10T11:08:04.991Z,23.83
2018-02-10T11:10:33.188Z,24.27
2018-02-10T11:13:00.825Z,23.63
2018-02-10T11:15:28.466Z,23.20
2018-02-10T11:17:56.161Z,22.63
2018-02-10T11:20:23.763Z,20.93
2018-02-10T11:22:51.378Z,21.53
2018-02-10T11:25:19.756Z,21.03
2018-02-10T11:27:47.374Z,22.73
2018-02-10T11:30:14.939Z,22.03
2018-02-10T11:32:42.527Z,22.57
2018-02-10T11:36:33.984Z,20.63
2018-02-10T11:39:01.893Z,21.07
2018-02-10T11:41:29.602Z,22.23
2018-02-10T11:43:58.358Z,23.33
2018-02-10T11:46:26.226Z,21.37
2018-02-10T11:48:53.916Z,20.80
2018-02-10T11:51:22.482Z,21.57
2018-02-10T11:53:50.457Z,21.87
2018-02-10T11:56:18.977Z,22.13
2018-02-10T11:58:46.661Z,21.13
2018-02-10T12:01:15.623Z,21.40
2018-02-10T12:03:44.142Z,20.20
2018-02-10T12:06:11.715Z,20.10
2018-02-10T12:08:39.367Z,21.20
2018-02-10T12:11:06.962Z,21.00
2018-02-10T12:13:35.353Z,19.63
2018-02-10T12:22:10.103Z,20.53
2018-02-10T12:24:37.889Z,21.30
2018-02-10T12:27:05.511Z,20.80
2018-02-10T12:29:34.347Z,20.43
2018-02-10T12:32:01.964Z,22.20
2018-02-10T12:34:30.382Z,19.00
2018-02-10T12:36:59.053Z,19.97
2018-02-10T12:39:27.626Z,18.83
2018-02-10T12:41:55.373Z,20.07
2018-02-10T12:44:23.185Z,19.67
2018-02-10T12:46:51.207Z,18.97
2018-02-10T12:49:25.470Z,19.83
2018-02-10T12:51:53.094Z,18.00
2018-02-10T12:54:20.744Z,19.73
2018-02-10T12:56:50.392Z,21.83
2018-02-10T12:59:18.756Z,21.93
2018-02-10T13:01:46.395Z,21.43
2018-02-10T13:04:14.012Z,21.07
2018-02-10T13:06:41.600Z,21.37
2018-02-10T13:09:09.923Z,23.17
2018-02-10T13:11:37.611Z,20.07
2018-02-10T13:14:05.210Z,27.33
2018-02-10T13:16:32.820Z,27.10
2018-02-10T13:19:01.047Z,29.87
2018-02-10T13:21:29.029Z,21.23
2018-02-10T13:23:58.436Z,33.27
2018-02-10T13:26:26.124Z,41.03
2018-02-10T13:28:54.087Z,73.77
2018-02-10T13:31:21.784Z,41.03
2018-02-10T13:33:49.460Z,36.03
2018-02-10T13:36:18.057Z,21.83
2018-02-10T13:38:45.766Z,23.77
2018-02-10T13:41:13.720Z,21.03
2018-02-10T13:43:41.391Z,20.40
2018-02-10T13:46:09.002Z,18.87
2018-02-10T13:48:38.388Z,20.83
2018-02-10T13:51:06.018Z,19.60
2018-02-10T13:53:33.677Z,19.23
2018-02-10T13:56:02.043Z,18.60
2018-02-10T13:58:30.488Z,20.00
2018-02-10T14:00:58.139Z,18.17
2018-02-10T14:03:27.387Z,19.00
2018-02-10T14:05:55.022Z,18.10
2018-02-10T14:08:23.394Z,19.20
2018-02-10T14:10:51.048Z,19.47
2018-02-10T14:13:18.621Z,19.07
2018-02-10T14:15:47.068Z,20.63
2018-02-10T14:18:14.717Z,20.03
2018-02-10T14:20:43.150Z,23.80
2018-02-10T14:23:10.734Z,20.10
2018-02-10T14:25:38.925Z,20.00
2018-02-10T14:28:06.490Z,21.27
2018-02-10T14:30:34.074Z,20.90
2018-02-10T14:33:01.746Z,20.00
2018-02-10T14:35:30.141Z,19.07
2018-02-10T14:37:57.751Z,20.20
2018-02-10T14:40:25.416Z,20.53
2018-02-10T14:42:53.000Z,21.03
2018-02-10T14:45:21.462Z,20.13
2018-02-10T14:47:49.715Z,19.10
2018-02-10T14:50:17.360Z,18.90
2018-02-10T14:52:45.750Z,17.80
2018-02-10T14:55:15.489Z,19.70
2018-02-10T14:57:43.258Z,19.67
2018-02-10T15:00:12.003Z,19.10
2018-02-10T15:02:40.545Z,19.67
2018-02-10T15:05:08.209Z,19.17
2018-02-10T15:07:36.575Z,19.30
2018-02-10T15:10:04.151Z,20.23
2018-02-10T15:12:31.713Z,20.40
2018-02-10T15:14:59.335Z,19.87
2018-02-10T15:17:27.717Z,18.87
2018-02-10T15:19:56.418Z,24.13
2018-02-10T15:22:24.806Z,28.27
2018-02-10T15:24:53.382Z,23.67
2018-02-10T15:27:21.762Z,17.67
2018-02-10T15:30:01.239Z,17.17
2018-02-10T15:32:41.409Z,18.17
2018-02-10T15:35:09.814Z,16.67
2018-02-10T15:37:38.146Z,17.67
2018-02-10T15:40:06.298Z,19.10
2018-02-10T15:42:34.654Z,18.70
2018-02-10T15:45:02.323Z,17.80
2018-02-10T15:47:29.936Z,19.03
2018-02-10T15:49:58.313Z,18.63
2018-02-10T15:52:26.697Z,18.20
2018-02-10T15:54:54.532Z,17.30
2018-02-10T15:57:22.402Z,17.23
2018-02-10T15:59:50.056Z,19.50
2018-02-10T16:02:18.386Z,17.77
2018-02-10T16:04:46.045Z,17.80
2018-02-10T16:07:13.797Z,17.07
2018-02-10T16:09:42.146Z,18.73
2018-02-10T16:12:10.511Z,17.73
2018-02-10T16:14:38.440Z,18.03
2018-02-10T16:17:08.106Z,16.47
2018-02-10T16:19:35.687Z,17.23
2018-02-10T16:22:04.402Z,16.60
2018-02-10T16:24:32.307Z,17.60
2018-02-10T16:27:00.309Z,17.80
2018-02-10T16:29:28.309Z,16.77
2018-02-10T16:31:56.066Z,18.27
2018-02-10T16:34:24.570Z,17.13
2018-02-10T16:36:52.260Z,17.23
2018-02-10T16:39:19.910Z,16.63
2018-02-10T16:41:47.617Z,15.93
2018-02-10T16:44:15.281Z,18.43
2018-02-10T16:46:43.051Z,16.97
2018-02-10T16:49:10.706Z,18.47
2018-02-10T16:51:38.476Z,17.43
2018-02-10T16:54:06.880Z,16.57
2018-02-10T16:56:34.601Z,16.73
2018-02-10T16:59:02.987Z,17.67
2018-02-10T17:01:30.577Z,18.77
2018-02-10T17:03:58.143Z,15.93
2018-02-10T17:06:25.723Z,16.57
2018-02-10T17:08:53.305Z,17.40
2018-02-10T17:11:20.895Z,28.63
2018-02-10T17:13:49.225Z,29.77
2018-02-10T17:16:16.880Z,18.23
2018-02-10T17:18:44.599Z,17.37
2018-02-10T17:21:12.236Z,18.20
2018-02-10T17:23:39.985Z,18.20
2018-02-10T17:26:07.655Z,17.77
2018-02-10T17:28:35.220Z,18.07
2018-02-10T17:31:03.603Z,17.67
2018-02-10T17:33:31.677Z,18.67
2018-02-10T17:35:59.481Z,17.27
2018-02-10T17:38:27.858Z,17.27
2018-02-10T17:40:55.420Z,17.60
2018-02-10T17:43:23.031Z,16.70
2018-02-10T17:45:50.606Z,16.67
2018-02-10T17:48:18.180Z,18.27
2018-02-10T17:50:45.738Z,16.53
2018-02-10T17:53:14.177Z,15.53
2018-02-10T17:55:41.781Z,16.13
2018-02-10T17:58:09.358Z,17.47
2018-02-10T18:00:37.778Z,17.27
2018-02-10T18:03:05.515Z,15.83
2018-02-10T18:05:33.119Z,16.47
2018-02-10T18:08:00.739Z,15.90
2018-02-10T18:10:29.133Z,16.00
2018-02-10T18:12:56.729Z,15.37
2018-02-10T18:15:24.376Z,16.00
2018-02-10T18:17:52.010Z,15.97
2018-02-10T18:20:19.659Z,15.57
2018-02-10T18:22:48.008Z,17.23
2018-02-10T18:25:15.573Z,16.10
2018-02-10T18:27:43.462Z,17.43
2018-02-10T18:30:11.906Z,16.57
2018-02-10T18:32:39.894Z,16.57
2018-02-10T18:35:07.490Z,17.03
2018-02-10T18:37:35.109Z,16.47
2018-02-10T18:40:02.682Z,16.50
2018-02-10T18:42:30.251Z,16.90
2018-02-10T18:44:57.825Z,17.83
2018-02-10T18:47:25.467Z,16.57
2018-02-10T18:49:53.532Z,16.63
2018-02-10T18:52:22.219Z,16.53
2018-02-10T18:54:49.879Z,17.30
2018-02-10T18:57:17.590Z,16.27
2018-02-10T18:59:46.454Z,23.47
2018-02-10T19:02:14.331Z,44.07
2018-02-10T19:04:42.889Z,37.30
2018-02-10T19:07:10.487Z,50.10
2018-02-10T19:09:38.197Z,21.80
2018-02-10T19:12:05.850Z,17.97
2018-02-10T19:14:34.235Z,18.80
2018-02-10T19:17:02.597Z,19.20
2018-02-10T19:19:30.218Z,18.43
2018-02-10T19:21:57.820Z,18.10
2018-02-10T19:24:25.384Z,18.53
2018-02-10T19:26:52.944Z,18.57
2018-02-10T19:29:20.601Z,16.17
2018-02-10T19:31:48.993Z,18.90
2018-02-10T19:34:17.480Z,18.27
2018-02-10T19:36:45.848Z,17.77
2018-02-10T19:39:13.428Z,18.03
2018-02-10T19:41:41.629Z,19.00
2018-02-10T19:44:09.237Z,18.03
2018-02-10T19:46:36.830Z,17.30
2018-02-10T19:49:04.524Z,17.90
2018-02-10T19:51:32.225Z,17.83
2018-02-10T19:54:01.440Z,18.20
2018-02-10T19:56:29.034Z,17.63
2018-02-10T19:58:57.111Z,16.93
2018-02-10T20:01:25.440Z,18.90
2018-02-10T20:03:53.126Z,17.90
2018-02-10T20:06:21.794Z,18.87
2018-02-10T20:08:49.385Z,17.87
2018-02-10T20:11:17.067Z,17.97
2018-02-10T20:13:44.704Z,18.73
2018-02-10T20:16:12.322Z,18.97
2018-02-10T20:18:40.253Z,17.93
2018-02-10T20:21:07.845Z,43.13
2018-02-10T20:23:36.970Z,55.03
2018-02-10T20:26:04.596Z,21.37
2018-02-10T20:28:33.189Z,16.00
2018-02-10T20:31:00.783Z,16.93
2018-02-10T20:33:28.500Z,16.97
2018-02-10T20:35:57.748Z,17.90
2018-02-10T20:38:25.519Z,18.03
2018-02-10T20:40:53.151Z,19.50
2018-02-10T20:43:21.082Z,17.67
2018-02-10T20:45:49.503Z,17.33
2018-02-10T20:48:17.143Z,17.33
2018-02-10T20:50:44.758Z,17.53
2018-02-10T20:53:12.507Z,17.50
2018-02-10T20:55:41.368Z,17.80
2018-02-10T20:58:09.486Z,17.20
2018-02-10T21:00:38.920Z,16.20
2018-02-10T21:03:06.730Z,18.17
2018-02-10T21:05:34.303Z,17.23
2018-02-10T21:08:02.644Z,17.53
2018-02-10T21:10:31.541Z,17.40
2018-02-10T21:13:00.655Z,16.80
2018-02-10T21:15:29.491Z,16.30
2018-02-10T21:17:57.139Z,18.13
2018-02-10T21:20:24.768Z,20.90
2018-02-10T21:22:52.360Z,18.13
2018-02-10T21:25:20.718Z,18.00
2018-02-10T21:27:48.344Z,19.10
2018-02-10T21:30:15.958Z,20.83
2018-02-10T21:32:43.543Z,17.90
2018-02-10T21:35:11.919Z,19.07
2018-02-10T21:37:39.509Z,18.70
2018-02-10T21:40:07.101Z,20.73
2018-02-10T21:42:35.503Z,21.30
2018-02-10T21:45:03.205Z,20.13
2018-02-10T21:47:30.778Z,20.13
2018-02-10T21:49:58.397Z,19.20
2018-02-10T21:52:26.008Z,20.30
2018-02-10T21:54:53.609Z,20.77
2018-02-10T21:57:21.240Z,19.83
2018-02-10T21:59:48.859Z,19.70
2018-02-10T22:02:16.478Z,18.90
2018-02-10T22:04:44.884Z,20.27
2018-02-10T22:07:12.475Z,20.53
2018-02-10T22:09:40.096Z,17.93
2018-02-10T22:12:07.743Z,24.30
2018-02-10T22:14:35.361Z,21.70
2018-02-10T22:17:03.716Z,27.47
2018-02-10T22:19:31.326Z,25.40
2018-02-10T22:21:59.675Z,28.20
2018-02-10T22:24:27.296Z,27.73
2018-02-10T22:26:54.877Z,31.53
2018-02-10T22:29:22.443Z,29.00
2018-02-10T22:31:50.114Z,23.27
2018-02-10T22:34:17.778Z,22.77
2018-02-10T22:36:46.163Z,33.67
2018-02-10T22:39:13.775Z,23.13
2018-02-10T22:41:41.423Z,18.30
2018-02-10T22:44:09.018Z,18.57
2018-02-10T22:46:36.734Z,17.47
2018-02-10T22:49:04.669Z,18.40
2018-02-10T22:51:33.635Z,17.43
2018-02-10T22:54:01.968Z,17.80
2018-02-10T22:56:30.214Z,16.63
2018-02-10T22:58:57.891Z,17.77
2018-02-10T23:01:28.728Z,15.77
2018-02-10T23:03:57.027Z,16.83
2018-02-10T23:06:26.619Z,15.30
2018-02-10T23:08:54.664Z,16.03
2018-02-10T23:11:22.316Z,15.60
2018-02-10T23:13:50.829Z,15.53
2018-02-10T23:16:18.709Z,16.40
2018-02-10T23:18:46.807Z,15.20
2018-02-10T23:21:14.636Z,14.70
2018-02-10T23:23:43.140Z,15.27
2018-02-10T23:26:10.751Z,14.87
2018-02-10T23:28:39.603Z,13.10
2018-02-10T23:31:08.520Z,13.23
2018-02-10T23:33:36.239Z,12.83
2018-02-10T23:36:04.372Z,12.60
2018-02-10T23:38:32.901Z,13.13
2018-02-10T23:41:00.991Z,12.40
2018-02-10T23:43:29.251Z,11.77
2018-02-10T23:45:56.953Z,11.70
2018-02-10T23:48:24.606Z,11.53
2018-02-10T23:50:52.991Z,10.67
2018-02-10T23:53:21.574Z,11.47
2018-02-10T23:55:50.357Z,12.40
2018-02-10T23:58:17.979Z,11.77
